createdAt,value
2023-01-09T00:00:29.652Z,27.93
2023-01-09T00:03:35.950Z,21.93
2023-01-09T00:06:43.596Z,22.10
2023-01-09T00:09:49.720Z,9.77
2023-01-09T00:12:57.512Z,12.57
2023-01-09T00:16:05.015Z,7.60
2023-01-09T00:19:11.256Z,12.67
2023-01-09T00:22:17.354Z,15.50
2023-01-09T00:25:24.110Z,6.03
2023-01-09T00:28:31.911Z,11.43
2023-01-09T00:31:38.196Z,14.30
2023-01-09T00:34:44.447Z,16.07
2023-01-09T00:37:50.834Z,9.63
2023-01-09T00:40:57.648Z,33.20
2023-01-09T00:44:09.967Z,23.27
2023-01-09T00:47:21.638Z,26.30
2023-01-09T00:50:32.433Z,30.27
2023-01-09T00:53:42.856Z,27.20
2023-01-09T00:56:50.289Z,27.93
2023-01-09T00:59:59.398Z,16.40
2023-01-09T01:03:06.107Z,12.57
2023-01-09T01:06:30.308Z,13.77
2023-01-09T01:09:36.965Z,8.77
2023-01-09T01:12:43.856Z,22.60
2023-01-09T01:15:51.617Z,11.60
2023-01-09T01:18:57.872Z,13.00
2023-01-09T01:22:04.034Z,18.70
2023-01-09T01:25:11.667Z,17.17
2023-01-09T01:28:18.155Z,43.70
2023-01-09T01:31:25.763Z,34.80
2023-01-09T01:34:32.223Z,36.00
2023-01-09T01:37:39.595Z,28.43
2023-01-09T01:40:45.887Z,21.53
2023-01-09T01:43:54.785Z,17.80
2023-01-09T01:47:03.142Z,10.00
2023-01-09T01:50:15.803Z,11.67
2023-01-09T01:53:26.716Z,15.70
2023-01-09T01:56:38.798Z,14.70
2023-01-09T01:59:50.477Z,15.73
2023-01-09T02:02:58.875Z,18.87
2023-01-09T02:06:06.102Z,22.47
2023-01-09T02:09:15.381Z,14.50
2023-01-09T02:12:24.908Z,15.47
2023-01-09T02:15:41.112Z,12.20
2023-01-09T02:18:52.463Z,11.10
2023-01-09T02:22:09.858Z,14.77
2023-01-09T02:25:46.531Z,25.37
2023-01-09T02:29:47.020Z,29.93
2023-01-09T02:33:07.843Z,18.57
2023-01-09T02:36:24.172Z,26.50
2023-01-09T02:39:38.673Z,22.80
2023-01-09T02:42:47.019Z,17.00
2023-01-09T02:45:53.441Z,18.33
2023-01-09T02:49:00.998Z,24.60
2023-01-09T02:52:34.955Z,18.90
2023-01-09T02:55:53.138Z,15.93
2023-01-09T02:59:15.272Z,21.23
2023-01-09T03:02:36.696Z,25.17
2023-01-09T03:05:51.147Z,18.43
2023-01-09T03:09:02.630Z,17.50
2023-01-09T03:12:18.302Z,25.57
2023-01-09T03:15:30.277Z,23.57
2023-01-09T03:18:38.511Z,22.20
2023-01-09T03:21:47.844Z,27.27
2023-01-09T03:24:54.059Z,24.80
2023-01-09T03:28:02.386Z,29.17
2023-01-09T03:31:08.540Z,16.47
2023-01-09T03:34:14.703Z,11.83
2023-01-09T03:37:22.527Z,16.47
2023-01-09T03:40:29.030Z,25.13
2023-01-09T03:43:36.058Z,12.00
2023-01-09T03:46:42.251Z,16.23
2023-01-09T03:49:48.288Z,10.10
2023-01-09T03:52:56.429Z,17.80
2023-01-09T03:56:03.097Z,14.77
2023-01-09T03:59:09.536Z,19.73
2023-01-09T04:02:15.789Z,25.67
2023-01-09T04:05:21.981Z,16.43
2023-01-09T04:08:30.740Z,15.90
2023-01-09T04:11:36.992Z,33.40
2023-01-09T04:14:43.154Z,25.67
2023-01-09T04:17:49.475Z,36.93
2023-01-09T04:20:55.650Z,58.40
2023-01-09T04:24:03.221Z,41.20
2023-01-09T04:27:09.387Z,31.47
2023-01-09T04:30:16.226Z,19.67
2023-01-09T04:33:22.611Z,18.30
2023-01-09T04:36:28.865Z,36.77
2023-01-09T04:39:37.558Z,24.73
2023-01-09T04:42:44.140Z,22.97
2023-01-09T04:45:50.773Z,23.40
2023-01-09T04:48:57.219Z,20.07
2023-01-09T04:52:03.454Z,21.83
2023-01-09T04:55:11.691Z,23.43
2023-01-09T04:58:17.949Z,23.43
2023-01-09T05:01:24.787Z,17.13
2023-01-09T05:04:31.609Z,19.33
2023-01-09T05:07:38.319Z,23.40
2023-01-09T05:10:46.203Z,24.67
2023-01-09T05:13:53.017Z,26.57
2023-01-09T05:16:59.416Z,32.37
2023-01-09T05:20:06.287Z,38.90
2023-01-09T05:23:12.279Z,46.47
2023-01-09T05:26:23.392Z,42.90
2023-01-09T05:29:29.751Z,39.20
2023-01-09T05:32:36.109Z,39.10
2023-01-09T05:35:42.156Z,40.40
2023-01-09T05:38:48.496Z,36.07
2023-01-09T05:41:56.281Z,30.77
2023-01-09T05:45:02.623Z,27.27
2023-01-09T05:48:08.922Z,22.43
2023-01-09T05:51:15.512Z,28.53
2023-01-09T05:54:21.888Z,38.03
2023-01-09T05:57:30.022Z,44.87
2023-01-09T06:00:36.280Z,36.27
2023-01-09T06:03:43.064Z,70.53
2023-01-09T06:10:15.595Z,69.30
2023-01-09T06:13:23.467Z,89.57
2023-01-09T06:16:29.918Z,50.13
2023-01-09T06:19:36.225Z,44.33
2023-01-09T06:22:44.883Z,57.00
2023-01-09T06:25:51.481Z,30.80
2023-01-09T06:29:01.016Z,36.73
2023-01-09T06:32:07.883Z,22.73
2023-01-09T06:35:14.384Z,30.17
2023-01-09T06:38:21.283Z,32.33
2023-01-09T06:41:27.536Z,26.57
2023-01-09T06:44:37.362Z,32.50
2023-01-09T06:47:43.689Z,31.03
2023-01-09T06:50:50.318Z,29.10
2023-01-09T06:53:56.665Z,36.67
2023-01-09T06:57:03.616Z,29.97
2023-01-09T07:00:13.160Z,27.57
2023-01-09T07:03:22.373Z,25.70
2023-01-09T07:06:30.099Z,21.27
2023-01-09T07:09:36.450Z,29.83
2023-01-09T07:12:42.704Z,30.37
2023-01-09T07:15:50.893Z,34.47
2023-01-09T07:18:57.423Z,30.03
2023-01-09T07:22:03.956Z,39.70
2023-01-09T07:25:10.605Z,43.93
2023-01-09T07:28:17.166Z,53.40
2023-01-09T07:31:24.745Z,59.03
2023-01-09T07:34:31.374Z,47.47
2023-01-09T07:37:37.780Z,71.90
2023-01-09T07:40:43.975Z,181.57
2023-01-09T07:43:50.340Z,106.77
2023-01-09T07:46:57.937Z,45.67
2023-01-09T07:50:04.573Z,30.60
2023-01-09T07:53:11.038Z,39.63
2023-01-09T07:56:17.401Z,40.93
2023-01-09T07:59:23.452Z,31.70
2023-01-09T08:02:31.227Z,23.27
2023-01-09T08:05:37.391Z,28.23
2023-01-09T08:08:44.386Z,38.00
2023-01-09T08:11:50.953Z,54.23
2023-01-09T08:14:57.716Z,41.23
2023-01-09T08:18:05.679Z,32.20
2023-01-09T08:21:12.627Z,30.73
2023-01-09T08:24:18.920Z,37.07
2023-01-09T08:27:25.193Z,24.70
2023-01-09T08:30:31.343Z,25.40
2023-01-09T08:33:40.493Z,30.80
2023-01-09T08:36:46.902Z,35.13
2023-01-09T08:39:53.665Z,27.13
2023-01-09T08:43:18.011Z,45.40
2023-01-09T08:46:41.360Z,35.47
2023-01-09T08:49:49.127Z,31.37
2023-01-09T08:52:55.649Z,37.03
2023-01-09T08:56:01.788Z,51.57
2023-01-09T08:59:08.177Z,68.87
2023-01-09T09:02:14.145Z,47.33
2023-01-09T09:05:23.080Z,40.60
2023-01-09T09:08:29.596Z,27.97
2023-01-09T09:11:35.984Z,37.23
2023-01-09T09:14:59.755Z,57.77
2023-01-09T09:18:09.383Z,54.77
2023-01-09T09:21:17.152Z,31.37
2023-01-09T09:24:23.848Z,29.50
2023-01-09T09:27:30.566Z,26.67
2023-01-09T09:30:39.291Z,73.60
2023-01-09T09:33:45.727Z,48.93
2023-01-09T09:36:53.468Z,39.30
2023-01-09T09:40:09.786Z,35.57
2023-01-09T09:43:59.857Z,22.00
2023-01-09T09:47:13.923Z,24.33
2023-01-09T09:50:40.417Z,25.77
2023-01-09T09:53:52.893Z,21.70
2023-01-09T09:57:01.055Z,30.10
2023-01-09T10:00:09.214Z,43.83
2023-01-09T10:03:33.983Z,59.90
2023-01-09T10:06:45.156Z,67.40
2023-01-09T10:09:55.919Z,42.67
2023-01-09T10:13:23.652Z,41.37
2023-01-09T10:16:41.826Z,17.47
2023-01-09T10:20:25.970Z,14.30
2023-01-09T10:24:06.481Z,12.13
2023-01-09T10:27:23.058Z,19.73
2023-01-09T10:30:36.319Z,7.77
2023-01-09T10:33:56.028Z,10.57
2023-01-09T10:37:12.359Z,11.83
2023-01-09T10:40:23.501Z,16.20
2023-01-09T10:43:37.410Z,22.63
2023-01-09T10:46:50.402Z,14.60
2023-01-09T10:49:58.067Z,13.37
2023-01-09T10:53:16.509Z,20.37
2023-01-09T10:56:25.654Z,11.93
2023-01-09T10:59:33.570Z,15.17
2023-01-09T11:02:40.087Z,15.27
2023-01-09T11:05:52.318Z,11.30
2023-01-09T11:09:01.560Z,11.40
2023-01-09T11:12:26.337Z,8.97
2023-01-09T11:15:34.225Z,14.43
2023-01-09T11:18:49.283Z,12.00
2023-01-09T11:22:08.111Z,11.23
2023-01-09T11:25:15.571Z,13.27
2023-01-09T11:28:22.228Z,11.27
2023-01-09T11:31:30.543Z,15.57
2023-01-09T11:34:39.191Z,11.93
2023-01-09T11:37:46.469Z,9.27
2023-01-09T11:40:55.806Z,8.13
2023-01-09T11:44:05.733Z,13.23
2023-01-09T11:47:35.794Z,22.43
2023-01-09T11:50:42.184Z,16.83
2023-01-09T11:54:22.213Z,23.17
2023-01-09T11:57:28.826Z,20.13
2023-01-09T12:00:45.609Z,14.60
2023-01-09T12:04:10.961Z,17.70
2023-01-09T12:07:35.621Z,29.77
2023-01-09T12:10:59.317Z,21.20
2023-01-09T12:14:16.607Z,22.03
2023-01-09T12:18:03.436Z,18.80
2023-01-09T12:21:33.997Z,42.33
2023-01-09T12:25:02.401Z,19.47
2023-01-09T12:28:48.142Z,35.10
2023-01-09T12:32:11.584Z,30.70
2023-01-09T12:35:30.280Z,25.23
2023-01-09T12:38:49.116Z,16.07
2023-01-09T12:42:18.573Z,26.37
2023-01-09T12:45:42.963Z,19.57
2023-01-09T12:49:12.888Z,12.33
2023-01-09T12:52:23.573Z,20.90
2023-01-09T12:55:36.211Z,88.83
2023-01-09T12:58:48.483Z,40.43
2023-01-09T13:01:55.561Z,25.57
2023-01-09T13:05:04.120Z,19.90
2023-01-09T13:08:16.919Z,23.23
2023-01-09T13:11:30.166Z,29.07
2023-01-09T13:14:50.414Z,31.13
2023-01-09T13:18:01.817Z,7.73
2023-01-09T13:21:09.784Z,17.93
2023-01-09T13:24:21.325Z,13.00
2023-01-09T13:27:34.673Z,27.20
2023-01-09T13:31:01.098Z,25.00
2023-01-09T13:34:21.567Z,22.60
2023-01-09T13:37:30.887Z,19.40
2023-01-09T13:40:38.228Z,21.67
2023-01-09T13:43:57.227Z,22.23
2023-01-09T13:47:04.673Z,17.27
2023-01-09T13:50:27.178Z,42.33
2023-01-09T13:53:49.576Z,42.67
2023-01-09T13:57:29.700Z,49.13
2023-01-09T14:00:55.887Z,41.67
2023-01-09T14:04:39.510Z,36.17
2023-01-09T14:07:49.210Z,44.10
2023-01-09T14:10:58.188Z,36.07
2023-01-09T14:14:09.239Z,32.93
2023-01-09T14:17:24.368Z,52.03
2023-01-09T14:20:38.002Z,56.17
2023-01-09T14:23:54.952Z,48.33
2023-01-09T14:27:03.631Z,69.60
2023-01-09T14:30:31.974Z,47.27
2023-01-09T14:33:40.077Z,59.07
2023-01-09T14:36:46.653Z,102.00
2023-01-09T14:39:53.375Z,43.53
2023-01-09T14:43:10.384Z,71.73
2023-01-09T14:46:19.812Z,82.17
2023-01-09T14:49:35.752Z,102.53
2023-01-09T14:52:49.086Z,96.43
2023-01-09T14:55:58.156Z,105.37
2023-01-09T14:59:11.624Z,84.93
2023-01-09T15:02:22.806Z,116.53
2023-01-09T15:05:32.899Z,93.10
2023-01-09T15:08:39.486Z,113.33
2023-01-09T15:11:46.465Z,77.87
2023-01-09T15:14:56.048Z,67.03
2023-01-09T15:18:06.537Z,62.23
2023-01-09T15:21:21.437Z,69.03
2023-01-09T15:24:30.558Z,41.47
2023-01-09T15:27:48.419Z,38.97
2023-01-09T15:30:57.472Z,39.87
2023-01-09T15:34:05.750Z,24.50
2023-01-09T15:37:26.823Z,31.87
2023-01-09T15:40:35.720Z,47.50
2023-01-09T15:43:45.370Z,73.67
2023-01-09T15:46:52.156Z,143.70
2023-01-09T15:49:59.932Z,113.87
2023-01-09T15:53:11.529Z,154.67
2023-01-09T15:56:24.276Z,143.47
2023-01-09T15:59:30.671Z,90.03
2023-01-09T16:02:54.675Z,48.97
2023-01-09T16:06:08.377Z,92.80
2023-01-09T16:09:21.204Z,73.43
2023-01-09T16:12:30.032Z,90.80
2023-01-09T16:15:36.745Z,101.33
2023-01-09T16:18:51.887Z,53.73
2023-01-09T16:21:58.859Z,73.37
2023-01-09T16:25:28.969Z,77.70
2023-01-09T16:28:35.695Z,58.10
2023-01-09T16:31:42.184Z,75.87
2023-01-09T16:34:52.259Z,32.40
2023-01-09T16:37:59.399Z,24.07
2023-01-09T16:41:40.713Z,19.03
2023-01-09T16:44:47.107Z,70.37
2023-01-09T16:47:53.754Z,92.37
2023-01-09T16:51:00.143Z,73.23
2023-01-09T16:54:06.807Z,91.60
2023-01-09T16:57:18.377Z,96.20
2023-01-09T17:00:24.938Z,96.67
2023-01-09T17:03:31.239Z,90.70
2023-01-09T17:06:39.117Z,117.10
2023-01-09T17:09:45.933Z,93.80
2023-01-09T17:12:53.559Z,94.87
2023-01-09T17:16:00.665Z,99.93
2023-01-09T17:19:06.883Z,91.50
2023-01-09T17:22:13.475Z,86.03
2023-01-09T17:25:36.879Z,71.97
2023-01-09T17:28:47.847Z,52.37
2023-01-09T17:31:54.362Z,48.23
2023-01-09T17:35:00.596Z,59.47
2023-01-09T17:38:07.085Z,66.77
2023-01-09T17:41:14.430Z,58.83
2023-01-09T17:44:22.165Z,69.67
2023-01-09T17:47:28.810Z,65.30
2023-01-09T17:50:36.469Z,64.73
2023-01-09T17:53:42.815Z,76.07
2023-01-09T17:56:51.348Z,81.73
2023-01-09T17:59:59.293Z,78.33
2023-01-09T18:03:07.660Z,81.10
2023-01-09T18:06:14.890Z,70.17
2023-01-09T18:09:20.966Z,48.47
2023-01-09T18:12:27.316Z,45.13
2023-01-09T18:15:34.727Z,37.93
2023-01-09T18:18:41.835Z,28.67
2023-01-09T18:21:48.153Z,42.57
2023-01-09T18:24:54.179Z,26.83
2023-01-09T18:28:01.235Z,20.97
2023-01-09T18:31:09.206Z,53.13
2023-01-09T18:34:15.492Z,39.73
2023-01-09T18:37:21.747Z,45.90
2023-01-09T18:40:28.011Z,37.60
2023-01-09T18:43:34.394Z,40.73
2023-01-09T18:46:43.654Z,43.30
2023-01-09T18:49:50.165Z,35.33
2023-01-09T18:52:56.350Z,37.27
2023-01-09T18:56:05.330Z,34.17
2023-01-09T18:59:12.409Z,36.57
2023-01-09T19:02:23.049Z,44.97
2023-01-09T19:05:29.648Z,54.07
2023-01-09T19:08:37.196Z,38.87
2023-01-09T19:11:44.515Z,40.40
2023-01-09T19:14:50.917Z,33.67
2023-01-09T19:17:59.026Z,32.47
2023-01-09T19:21:11.605Z,33.33
2023-01-09T19:24:20.301Z,30.73
2023-01-09T19:27:29.227Z,37.70
2023-01-09T19:30:36.858Z,74.90
2023-01-09T19:33:44.886Z,80.47
2023-01-09T19:36:51.704Z,78.27
2023-01-09T19:39:58.280Z,59.70
2023-01-09T19:43:04.626Z,42.90
2023-01-09T19:46:12.867Z,43.00
2023-01-09T19:49:20.840Z,92.53
2023-01-09T19:52:27.339Z,78.07
2023-01-09T19:55:33.676Z,75.73
2023-01-09T19:58:40.080Z,55.83
2023-01-09T20:01:48.072Z,55.53
2023-01-09T20:04:55.732Z,67.07
2023-01-09T20:08:06.297Z,82.80
2023-01-09T20:11:12.858Z,67.03
2023-01-09T20:14:20.925Z,80.63
2023-01-09T20:17:27.459Z,81.07
2023-01-09T20:20:35.327Z,57.03
2023-01-09T20:23:41.598Z,53.73
2023-01-09T20:26:47.944Z,46.37
2023-01-09T20:29:54.172Z,36.20
2023-01-09T20:33:00.646Z,50.10
2023-01-09T20:36:09.605Z,71.07
2023-01-09T20:39:16.130Z,58.90
2023-01-09T20:42:22.302Z,68.47
2023-01-09T20:45:28.885Z,45.23
2023-01-09T20:48:35.305Z,50.27
2023-01-09T20:51:46.147Z,45.93
2023-01-09T20:54:52.205Z,59.33
2023-01-09T20:57:58.747Z,94.40
2023-01-09T21:01:08.867Z,78.27
2023-01-09T21:04:15.272Z,90.57
2023-01-09T21:07:25.041Z,72.00
2023-01-09T21:10:31.268Z,83.33
2023-01-09T21:13:37.440Z,80.47
2023-01-09T21:16:53.718Z,87.07
2023-01-09T21:20:01.069Z,88.53
2023-01-09T21:23:10.474Z,66.57
2023-01-09T21:26:18.884Z,52.40
2023-01-09T21:29:25.564Z,59.83
2023-01-09T21:32:32.901Z,60.47
2023-01-09T21:35:39.152Z,47.93
2023-01-09T21:38:47.754Z,61.77
2023-01-09T21:42:11.309Z,109.43
2023-01-09T21:45:36.789Z,85.73
2023-01-09T21:48:43.267Z,69.07
2023-01-09T21:51:49.704Z,72.23
2023-01-09T21:54:58.885Z,78.37
2023-01-09T21:58:05.429Z,88.40
2023-01-09T22:01:11.962Z,51.40
2023-01-09T22:04:19.687Z,63.30
2023-01-09T22:07:26.438Z,60.93
2023-01-09T22:10:34.322Z,61.73
2023-01-09T22:13:40.660Z,47.17
2023-01-09T22:16:47.604Z,44.87
2023-01-09T22:19:54.025Z,34.73
2023-01-09T22:23:00.409Z,42.53
2023-01-09T22:26:13.237Z,29.53
2023-01-09T22:29:19.806Z,31.50
2023-01-09T22:32:26.127Z,35.23
2023-01-09T22:35:32.595Z,47.87
2023-01-09T22:38:39.669Z,32.50
2023-01-09T22:41:52.152Z,34.00
2023-01-09T22:44:58.716Z,30.43
2023-01-09T22:48:05.138Z,33.07
2023-01-09T22:51:14.767Z,36.17
2023-01-09T22:54:21.766Z,25.03
2023-01-09T22:57:29.748Z,35.50
2023-01-09T23:00:36.192Z,41.70
2023-01-09T23:03:42.625Z,39.00
2023-01-09T23:06:48.944Z,43.70
2023-01-09T23:09:56.457Z,36.50
2023-01-09T23:13:04.392Z,27.87
2023-01-09T23:16:11.048Z,25.90
2023-01-09T23:19:17.748Z,28.83
2023-01-09T23:22:25.998Z,22.57
2023-01-09T23:25:32.524Z,20.80
2023-01-09T23:28:40.456Z,30.67
2023-01-09T23:31:46.887Z,16.93
2023-01-09T23:34:53.151Z,20.40
2023-01-09T23:37:59.682Z,41.03
2023-01-09T23:41:07.308Z,27.30
2023-01-09T23:44:14.352Z,19.10
2023-01-09T23:47:21.080Z,8.27
2023-01-09T23:50:27.397Z,12.63
2023-01-09T23:53:34.025Z,12.83
2023-01-09T23:56:40.499Z,14.47
2023-01-09T23:59:48.179Z,12.87
